Terminal Aerodrome Forecast
Issued by NWS

Home | Current Version | Previous Version | Text Only | Print | Product List | Glossary On
Versions: 1 2 3 4 5 6 7 8 9 10 11 12 13 14 15 16 17 18 19 20 21 22 23 24 25 26 27 28 29 30 31 32 33 34 35 36
000
FTUS45 KSLC 301120
TAFPVU
TAF
KPVU 301120Z 3012/0112 14006KT P6SM SCT080
     FM301800 VRB05KT P6SM VCSH SCT050 BKN070
     FM010400 33007KT P6SM -SHRA SCT040 BKN050
     FM010900 33007KT P6SM SCT040 BKN050
      AMD LTD TO CLD VIS AND WIND=

USA.gov is the U.S. government's official web portal to all federal, state and local government web resources and services.